createdAt,value
2022-07-29T00:00:21.659Z,98364.81
2022-07-29T00:03:24.585Z,98362.84
2022-07-29T00:06:27.352Z,98371.53
2022-07-29T00:09:30.314Z,98368.00
2022-07-29T00:12:34.398Z,98351.75
2022-07-29T00:15:37.368Z,98358.06
2022-07-29T00:18:40.366Z,98345.81
2022-07-29T00:21:43.074Z,98349.34
2022-07-29T00:24:45.895Z,98341.44
2022-07-29T00:27:49.996Z,98345.38
2022-07-29T00:30:53.754Z,98347.34
2022-07-29T00:33:56.734Z,98349.69
2022-07-29T00:36:58.521Z,98346.94
2022-07-29T00:40:01.582Z,98346.50
2022-07-29T00:43:05.663Z,98348.47
2022-07-29T00:46:08.712Z,98342.09
2022-07-29T00:49:11.360Z,98340.56
2022-07-29T00:52:16.829Z,98348.47
2022-07-29T00:55:20.129Z,98346.13
2022-07-29T00:58:24.613Z,98349.31
2022-07-29T01:01:27.318Z,98338.22
2022-07-29T01:04:30.725Z,98330.69
2022-07-29T01:07:34.457Z,98322.38
2022-07-29T01:10:38.910Z,98322.34
2022-07-29T01:13:43.406Z,98307.22
2022-07-29T01:16:52.776Z,98307.22
2022-07-29T01:20:02.238Z,98311.97
2022-07-29T01:23:20.013Z,98316.34
2022-07-29T01:26:35.704Z,98315.97
2022-07-29T01:29:44.049Z,98306.78
2022-07-29T01:32:52.583Z,98312.69
2022-07-29T01:35:55.210Z,98319.41
2022-07-29T01:39:02.941Z,98321.38
2022-07-29T01:42:12.845Z,98317.84
2022-07-29T01:45:19.751Z,98322.19
2022-07-29T01:48:25.407Z,98315.06
2022-07-29T01:51:33.020Z,98315.50
2022-07-29T01:54:39.807Z,98311.13
2022-07-29T01:57:45.407Z,98319.81
2022-07-29T02:00:50.619Z,98317.47
2022-07-29T02:03:55.571Z,98315.84
2022-07-29T02:07:01.851Z,98307.88
2022-07-29T02:10:06.026Z,98303.88
2022-07-29T02:13:09.646Z,98301.13
2022-07-29T02:16:14.259Z,98306.25
2022-07-29T02:19:19.961Z,98297.94
2022-07-29T02:22:23.921Z,98296.34
2022-07-29T02:25:37.452Z,98293.94
2022-07-29T02:28:41.206Z,98291.16
2022-07-29T02:31:48.048Z,98296.72
2022-07-29T02:34:51.277Z,98279.78
2022-07-29T02:38:07.703Z,98286.91
2022-07-29T02:41:13.392Z,98286.56
2022-07-29T02:44:17.892Z,98294.09
2022-07-29T02:47:25.428Z,98290.50
2022-07-29T02:50:32.429Z,98293.63
2022-07-29T02:53:35.996Z,98297.56
2022-07-29T02:56:40.257Z,98299.50
2022-07-29T02:59:44.192Z,98306.19
2022-07-29T03:02:53.046Z,98308.16
2022-07-29T03:05:57.429Z,98310.16
2022-07-29T03:09:01.089Z,98308.13
2022-07-29T03:12:06.632Z,98312.91
2022-07-29T03:15:10.247Z,98314.50
2022-07-29T03:18:14.435Z,98316.47
2022-07-29T03:21:17.055Z,98309.75
2022-07-29T03:24:30.636Z,98314.09
2022-07-29T03:27:33.260Z,98309.28
2022-07-29T03:30:36.076Z,98310.91
2022-07-29T03:33:42.847Z,98307.72
2022-07-29T03:36:45.532Z,98313.25
2022-07-29T03:39:48.616Z,98312.06
2022-07-29T03:42:53.156Z,98314.00
2022-07-29T03:45:57.415Z,98322.59
2022-07-29T03:49:02.897Z,98323.88
2022-07-29T03:52:06.797Z,98317.13
2022-07-29T03:55:10.922Z,98325.84
2022-07-29T03:58:14.945Z,98323.50
2022-07-29T04:01:19.402Z,98323.44
2022-07-29T04:04:23.755Z,98329.03
2022-07-29T04:07:26.682Z,98325.88
2022-07-29T04:10:31.686Z,98325.91
2022-07-29T04:13:37.597Z,98324.34
2022-07-29T04:16:41.067Z,98321.97
2022-07-29T04:19:45.020Z,98326.38
2022-07-29T04:22:47.803Z,98334.31
2022-07-29T04:25:50.443Z,98329.56
2022-07-29T04:28:53.255Z,98327.59
2022-07-29T04:31:55.934Z,98335.53
2022-07-29T04:35:00.091Z,98336.72
2022-07-29T04:38:03.158Z,98335.16
2022-07-29T04:41:05.856Z,98341.91
2022-07-29T04:44:09.258Z,98336.34
2022-07-29T04:47:12.113Z,98333.69
2022-07-29T04:50:16.223Z,98334.91
2022-07-29T04:53:18.925Z,98340.09
2022-07-29T04:56:21.734Z,98330.28
2022-07-29T04:59:25.876Z,98339.81
2022-07-29T05:02:28.560Z,98336.66
2022-07-29T05:05:32.736Z,98343.03
2022-07-29T05:08:35.451Z,98341.88
2022-07-29T05:11:38.180Z,98340.28
2022-07-29T05:14:40.977Z,98339.06
2022-07-29T05:17:44.052Z,98343.88
2022-07-29T05:20:47.994Z,98350.22
2022-07-29T05:23:52.187Z,98343.06
2022-07-29T05:26:54.912Z,98338.63
2022-07-29T05:29:57.566Z,98345.75
2022-07-29T05:33:00.219Z,98338.97
2022-07-29T05:36:06.559Z,98351.16
2022-07-29T05:39:09.377Z,98345.91
2022-07-29T05:42:12.234Z,98354.16
2022-07-29T05:45:14.850Z,98347.63
2022-07-29T05:48:17.381Z,98347.06
2022-07-29T05:51:21.662Z,98349.78
2022-07-29T05:54:24.703Z,98359.25
2022-07-29T05:57:27.158Z,98357.78
2022-07-29T06:00:31.162Z,98352.75
2022-07-29T06:03:33.937Z,98354.69
2022-07-29T06:06:37.970Z,98359.56
2022-07-29T06:09:40.735Z,98366.03
2022-07-29T06:12:43.440Z,98374.00
2022-07-29T06:15:46.274Z,98367.16
2022-07-29T06:18:49.186Z,98375.09
2022-07-29T06:21:53.063Z,98376.63
2022-07-29T06:24:55.829Z,98371.94
2022-07-29T06:27:58.827Z,98371.09
2022-07-29T06:31:01.940Z,98380.34
2022-07-29T06:34:04.924Z,98380.22
2022-07-29T06:37:15.362Z,98384.81
2022-07-29T06:40:36.116Z,98386.06
2022-07-29T06:43:50.285Z,98381.94
2022-07-29T06:46:54.143Z,98384.22
2022-07-29T06:49:56.675Z,98380.81
2022-07-29T06:53:00.764Z,98374.44
2022-07-29T06:56:04.509Z,98375.75
2022-07-29T06:59:07.678Z,98383.84
2022-07-29T07:02:10.549Z,98380.25
2022-07-29T07:05:13.350Z,98380.25
2022-07-29T07:08:17.823Z,98391.28
2022-07-29T07:11:20.500Z,98392.91
2022-07-29T07:14:23.175Z,98389.94
2022-07-29T07:17:26.222Z,98389.66
2022-07-29T07:20:29.098Z,98398.59
2022-07-29T07:23:33.280Z,98397.03
2022-07-29T07:26:36.223Z,98398.34
2022-07-29T07:29:44.247Z,98393.16
2022-07-29T07:32:47.153Z,98399.38
2022-07-29T07:35:49.783Z,98398.34
2022-07-29T07:38:53.932Z,98399.03
2022-07-29T07:41:56.787Z,98395.00
2022-07-29T07:45:13.162Z,98405.19
2022-07-29T07:48:16.524Z,98399.56
2022-07-29T07:51:19.172Z,98405.09
2022-07-29T07:54:23.147Z,98396.97
2022-07-29T07:57:25.977Z,98396.72
2022-07-29T08:00:28.854Z,98400.94
2022-07-29T08:03:31.609Z,98406.81
2022-07-29T08:06:35.863Z,98407.94
2022-07-29T08:09:39.973Z,98402.75
2022-07-29T08:12:42.860Z,98412.72
2022-07-29T08:15:47.056Z,98406.94
2022-07-29T08:18:49.903Z,98415.38
2022-07-29T08:21:54.969Z,98401.09
2022-07-29T08:24:59.261Z,98409.59
2022-07-29T08:28:02.013Z,98410.41
2022-07-29T08:31:04.874Z,98409.56
2022-07-29T08:34:08.268Z,98413.84
2022-07-29T08:37:11.225Z,98409.53
2022-07-29T08:40:16.480Z,98411.97
2022-07-29T08:43:19.348Z,98412.16
2022-07-29T08:46:22.760Z,98410.72
2022-07-29T08:49:25.641Z,98413.78
2022-07-29T08:52:28.836Z,98416.53
2022-07-29T08:55:33.480Z,98400.28
2022-07-29T08:58:36.850Z,98408.25
2022-07-29T09:01:45.128Z,98391.34
2022-07-29T09:04:48.523Z,98410.66
2022-07-29T09:07:51.882Z,98403.41
2022-07-29T09:10:57.109Z,98407.38
2022-07-29T09:13:59.697Z,98416.69
2022-07-29T09:17:02.586Z,98416.66
2022-07-29T09:20:11.295Z,98412.53
2022-07-29T09:23:14.343Z,98403.63
2022-07-29T09:26:29.522Z,98403.94
2022-07-29T09:29:36.129Z,98404.44
2022-07-29T09:32:56.984Z,98402.03
2022-07-29T09:36:06.343Z,98407.31
2022-07-29T09:39:09.116Z,98393.41
2022-07-29T09:42:14.069Z,98402.69
2022-07-29T09:45:29.704Z,98390.69
2022-07-29T09:48:32.354Z,98395.50
2022-07-29T09:51:38.255Z,98385.75
2022-07-29T09:54:41.669Z,98394.16
2022-07-29T09:57:46.310Z,98396.31
2022-07-29T10:00:50.646Z,98387.38
2022-07-29T10:03:53.880Z,98392.00
2022-07-29T10:07:04.694Z,98369.19
2022-07-29T10:10:08.585Z,98382.97
2022-07-29T10:13:16.001Z,98393.28
2022-07-29T10:16:19.749Z,98387.31
2022-07-29T10:19:22.434Z,98379.28
2022-07-29T10:22:50.812Z,98378.28
2022-07-29T10:25:48.324Z,98367.63
2022-07-29T10:28:52.281Z,98369.22
2022-07-29T10:32:04.696Z,98370.41
2022-07-29T10:35:29.171Z,98362.66
2022-07-29T10:38:45.694Z,98366.81
2022-07-29T10:42:09.645Z,98368.00
2022-07-29T10:45:19.169Z,98373.41
2022-07-29T10:48:23.609Z,98378.78
2022-07-29T10:51:27.314Z,98370.66
2022-07-29T10:54:46.069Z,98386.19
2022-07-29T10:58:13.641Z,98386.53
2022-07-29T11:05:02.282Z,98409.44
2022-07-29T11:08:28.102Z,98426.28
2022-07-29T11:11:34.928Z,98439.47
2022-07-29T11:14:58.987Z,98440.69
2022-07-29T11:18:15.015Z,98435.31
2022-07-29T11:21:53.866Z,98434.25
2022-07-29T11:25:16.794Z,98428.78
2022-07-29T11:28:22.404Z,98423.59
2022-07-29T11:31:40.356Z,98430.44
2022-07-29T11:34:44.430Z,98441.16
2022-07-29T11:37:52.811Z,98442.72
2022-07-29T11:41:23.585Z,98436.19
2022-07-29T11:44:58.845Z,98429.94
2022-07-29T11:48:28.542Z,98429.50
2022-07-29T11:51:32.713Z,98423.19
2022-07-29T11:54:57.242Z,98428.09
2022-07-29T11:58:03.908Z,98424.09
2022-07-29T12:01:07.283Z,98425.66
2022-07-29T12:04:10.456Z,98418.13
2022-07-29T12:07:15.326Z,98426.72
2022-07-29T12:10:20.178Z,98431.09
2022-07-29T12:13:40.991Z,98423.31
2022-07-29T12:16:43.907Z,98424.56
2022-07-29T12:19:46.806Z,98419.75
2022-07-29T12:22:54.402Z,98421.16
2022-07-29T12:26:00.194Z,98423.88
2022-07-29T12:29:03.196Z,98418.53
2022-07-29T12:32:14.377Z,98416.78
2022-07-29T12:35:20.142Z,98414.44
2022-07-29T12:38:24.433Z,98408.69
2022-07-29T12:41:27.144Z,98410.72
2022-07-29T12:44:48.421Z,98409.94
2022-07-29T12:47:54.612Z,98406.66
2022-07-29T12:50:59.172Z,98407.66
2022-07-29T12:54:08.984Z,98417.44
2022-07-29T12:57:19.993Z,98415.41
2022-07-29T13:00:25.445Z,98419.81
2022-07-29T13:03:28.303Z,98428.47
2022-07-29T13:06:32.905Z,98419.09
2022-07-29T13:09:41.330Z,98423.69
2022-07-29T13:13:03.310Z,98428.34
2022-07-29T13:16:10.158Z,98437.53
2022-07-29T13:19:13.578Z,98441.63
2022-07-29T13:22:17.519Z,98444.13
2022-07-29T13:25:27.603Z,98443.72
2022-07-29T13:28:30.369Z,98438.66
2022-07-29T13:31:32.975Z,98442.25
2022-07-29T13:34:35.606Z,98450.91
2022-07-29T13:37:39.386Z,98450.69
2022-07-29T13:40:44.703Z,98435.66
2022-07-29T13:43:47.618Z,98435.69
2022-07-29T13:46:53.007Z,98418.34
2022-07-29T13:49:55.667Z,98405.72
2022-07-29T13:52:58.618Z,98404.69
2022-07-29T13:56:02.695Z,98402.75
2022-07-29T13:59:05.414Z,98410.06
2022-07-29T14:02:08.588Z,98413.63
2022-07-29T14:05:11.766Z,98409.22
2022-07-29T14:08:14.634Z,98398.59
2022-07-29T14:11:18.595Z,98402.53
2022-07-29T14:14:21.727Z,98406.50
2022-07-29T14:17:25.141Z,98407.09
2022-07-29T14:20:29.388Z,98399.69
2022-07-29T14:23:32.330Z,98402.06
2022-07-29T14:26:36.328Z,98402.28
2022-07-29T14:29:39.403Z,98394.53
2022-07-29T14:32:42.174Z,98405.78
2022-07-29T14:35:44.792Z,98403.84
2022-07-29T14:38:47.738Z,98401.63
2022-07-29T14:41:52.025Z,98410.03
2022-07-29T14:44:54.750Z,98401.38
2022-07-29T14:47:58.347Z,98412.09
2022-07-29T14:51:04.759Z,98417.44
2022-07-29T14:54:07.680Z,98412.13
2022-07-29T14:57:11.801Z,98411.28
2022-07-29T15:00:15.039Z,98414.69
2022-07-29T15:03:24.277Z,98411.97
2022-07-29T15:06:27.381Z,98411.63
2022-07-29T15:09:30.331Z,98414.31
2022-07-29T15:12:34.553Z,98420.03
2022-07-29T15:15:37.244Z,98418.69
2022-07-29T15:18:39.865Z,98410.38
2022-07-29T15:21:48.560Z,98416.22
2022-07-29T15:25:02.155Z,98409.59
2022-07-29T15:28:07.946Z,98410.09
2022-07-29T15:31:11.278Z,98414.22
2022-07-29T15:34:14.242Z,98418.78
2022-07-29T15:37:17.034Z,98424.16
2022-07-29T15:40:19.814Z,98426.03
2022-07-29T15:43:23.849Z,98420.84
2022-07-29T15:46:46.882Z,98421.72
2022-07-29T15:49:49.994Z,98420.78
2022-07-29T15:52:52.834Z,98406.22
2022-07-29T15:55:55.495Z,98417.97
2022-07-29T15:58:59.859Z,98414.56
2022-07-29T16:02:03.793Z,98411.06
2022-07-29T16:05:09.380Z,98414.91
2022-07-29T16:08:12.329Z,98414.38
2022-07-29T16:11:14.816Z,98413.97
2022-07-29T16:14:19.194Z,98407.00
2022-07-29T16:17:22.048Z,98417.22
2022-07-29T16:20:24.896Z,98421.78
2022-07-29T16:23:27.616Z,98414.25
2022-07-29T16:26:30.235Z,98421.66
2022-07-29T16:29:34.309Z,98410.44
2022-07-29T16:32:36.977Z,98420.06
2022-07-29T16:35:40.481Z,98419.97
2022-07-29T16:38:47.212Z,98420.03
2022-07-29T16:41:50.393Z,98422.47
2022-07-29T16:44:54.707Z,98412.75
2022-07-29T16:48:01.013Z,98416.75
2022-07-29T16:51:04.570Z,98418.41
2022-07-29T16:54:08.614Z,98422.97
2022-07-29T16:57:11.808Z,98422.19
2022-07-29T17:00:17.839Z,98416.28
2022-07-29T17:03:20.533Z,98420.09
2022-07-29T17:06:23.104Z,98416.63
2022-07-29T17:09:26.015Z,98420.53
2022-07-29T17:12:28.717Z,98423.78
2022-07-29T17:15:32.628Z,98420.16
2022-07-29T17:18:39.443Z,98425.28
2022-07-29T17:21:46.254Z,98422.06
2022-07-29T17:24:51.802Z,98433.09
2022-07-29T17:28:00.608Z,98430.09
2022-07-29T17:31:05.206Z,98428.69
2022-07-29T17:34:08.733Z,98431.25
2022-07-29T17:37:13.024Z,98443.19
2022-07-29T17:40:15.792Z,98438.47
2022-07-29T17:43:18.585Z,98441.28
2022-07-29T17:46:24.748Z,98444.25
2022-07-29T17:49:28.193Z,98443.63
2022-07-29T17:52:31.158Z,98443.16
2022-07-29T17:55:33.763Z,98442.91
2022-07-29T17:58:36.350Z,98445.09
2022-07-29T18:01:41.384Z,98445.78
2022-07-29T18:04:44.073Z,98452.72
2022-07-29T18:07:46.995Z,98455.69
2022-07-29T18:10:49.693Z,98450.03
2022-07-29T18:13:52.302Z,98458.78
2022-07-29T18:16:56.686Z,98456.25
2022-07-29T18:19:59.504Z,98460.34
2022-07-29T18:23:02.369Z,98455.56
2022-07-29T18:26:05.463Z,98447.59
2022-07-29T18:29:08.007Z,98461.00
2022-07-29T18:32:14.570Z,98457.66
2022-07-29T18:35:17.663Z,98458.66
2022-07-29T18:38:21.856Z,98456.75
2022-07-29T18:41:24.782Z,98451.16
2022-07-29T18:44:27.797Z,98455.41
2022-07-29T18:47:32.480Z,98442.91
2022-07-29T18:50:35.808Z,98458.69
2022-07-29T18:53:38.689Z,98459.66
2022-07-29T18:56:41.224Z,98458.97
2022-07-29T18:59:43.930Z,98447.16
2022-07-29T19:02:48.081Z,98455.22
2022-07-29T19:05:51.425Z,98465.69
2022-07-29T19:08:54.232Z,98463.06
2022-07-29T19:12:01.861Z,98465.91
2022-07-29T19:15:07.568Z,98474.72
2022-07-29T19:18:13.243Z,98474.38
2022-07-29T19:21:16.012Z,98477.56
2022-07-29T19:24:20.317Z,98477.97
2022-07-29T19:27:23.247Z,98489.06
2022-07-29T19:30:25.721Z,98490.66
2022-07-29T19:33:29.902Z,98495.41
2022-07-29T19:36:32.596Z,98500.97
2022-07-29T19:39:35.734Z,98511.69
2022-07-29T19:42:38.668Z,98501.38
2022-07-29T19:45:41.821Z,98501.00
2022-07-29T19:48:46.561Z,98508.53
2022-07-29T19:51:49.457Z,98512.47
2022-07-29T19:54:52.110Z,98503.75
2022-07-29T19:57:55.269Z,98509.66
2022-07-29T20:00:57.924Z,98514.31
2022-07-29T20:04:01.946Z,98511.88
2022-07-29T20:07:04.651Z,98509.03
2022-07-29T20:10:09.874Z,98510.50
2022-07-29T20:13:12.949Z,98511.28
2022-07-29T20:16:15.702Z,98517.09
2022-07-29T20:19:19.766Z,98517.44
2022-07-29T20:22:22.541Z,98536.03
2022-07-29T20:25:25.337Z,98543.25
2022-07-29T20:28:28.020Z,98531.53
2022-07-29T20:31:31.969Z,98523.72
2022-07-29T20:34:36.143Z,98518.59
2022-07-29T20:37:52.564Z,98506.38
2022-07-29T20:40:59.603Z,98506.00
2022-07-29T20:44:02.491Z,98509.59
2022-07-29T20:47:05.381Z,98506.44
2022-07-29T20:50:10.950Z,98508.34
2022-07-29T20:53:13.632Z,98518.56
2022-07-29T20:56:16.472Z,98517.59
2022-07-29T20:59:19.101Z,98523.81
2022-07-29T21:02:21.985Z,98530.84
2022-07-29T21:05:26.400Z,98522.03
2022-07-29T21:08:29.507Z,98528.66
2022-07-29T21:11:43.612Z,98537.69
2022-07-29T21:14:50.323Z,98543.47
2022-07-29T21:18:00.444Z,98531.97
2022-07-29T21:21:06.029Z,98530.03
2022-07-29T21:24:12.015Z,98529.06
2022-07-29T21:27:32.965Z,98534.63
2022-07-29T21:30:35.914Z,98551.19
2022-07-29T21:33:39.358Z,98541.97
2022-07-29T21:36:48.305Z,98542.59
2022-07-29T21:40:01.447Z,98539.72
2022-07-29T21:43:04.350Z,98537.50
2022-07-29T21:46:07.348Z,98544.22
2022-07-29T21:49:10.203Z,98548.03
2022-07-29T21:52:14.422Z,98548.56
2022-07-29T21:55:19.274Z,98538.16
2022-07-29T21:58:22.812Z,98541.97
2022-07-29T22:01:25.610Z,98547.16
2022-07-29T22:04:28.919Z,98547.56
2022-07-29T22:07:54.615Z,98536.28
2022-07-29T22:10:56.110Z,98541.72
2022-07-29T22:13:58.813Z,98550.09
2022-07-29T22:17:01.773Z,98544.88
2022-07-29T22:20:05.296Z,98549.16
2022-07-29T22:23:09.408Z,98546.72
2022-07-29T22:26:12.091Z,98547.53
2022-07-29T22:29:17.583Z,98547.81
2022-07-29T22:32:20.538Z,98547.75
2022-07-29T22:35:23.253Z,98553.72
2022-07-29T22:38:27.196Z,98548.22
2022-07-29T22:41:29.782Z,98550.06
2022-07-29T22:44:32.563Z,98554.81
2022-07-29T22:47:39.794Z,98546.03
2022-07-29T22:50:51.620Z,98554.19
2022-07-29T22:53:55.697Z,98548.66
2022-07-29T22:56:58.780Z,98552.91
2022-07-29T23:00:02.310Z,98550.13
2022-07-29T23:03:05.091Z,98549.22
2022-07-29T23:06:08.051Z,98545.22
2022-07-29T23:09:12.041Z,98549.13
2022-07-29T23:12:14.648Z,98550.72
2022-07-29T23:15:18.187Z,98551.91
2022-07-29T23:18:20.987Z,98549.03
2022-07-29T23:21:23.783Z,98550.72
2022-07-29T23:24:27.748Z,98549.56
2022-07-29T23:27:30.590Z,98544.19
2022-07-29T23:30:33.502Z,98540.97
2022-07-29T23:33:36.282Z,98536.19
2022-07-29T23:36:38.998Z,98540.53
2022-07-29T23:39:43.148Z,98540.00
2022-07-29T23:42:46.081Z,98541.53
2022-07-29T23:45:49.009Z,98562.69
2022-07-29T23:48:51.779Z,98570.06
2022-07-29T23:51:54.491Z,98582.19
2022-07-29T23:55:36.531Z,98581.97
2022-07-29T23:58:21.605Z,98583.94
